createdAt,value
2018-10-19T00:00:46.818Z,2.30
2018-10-19T00:03:15.016Z,2.07
2018-10-19T00:05:42.995Z,2.00
2018-10-19T00:08:11.087Z,2.47
2018-10-19T00:10:46.747Z,2.30
2018-10-19T00:13:14.844Z,2.00
2018-10-19T00:15:42.935Z,2.43
2018-10-19T00:18:11.083Z,1.70
2018-10-19T00:20:39.166Z,2.20
2018-10-19T00:23:07.581Z,2.07
2018-10-19T00:25:35.671Z,1.90
2018-10-19T00:28:04.188Z,2.13
2018-10-19T00:30:32.287Z,2.00
2018-10-19T00:33:00.390Z,2.47
2018-10-19T00:35:28.518Z,2.23
2018-10-19T00:37:56.603Z,1.60
2018-10-19T00:40:24.691Z,1.60
2018-10-19T00:42:52.788Z,2.13
2018-10-19T00:45:25.207Z,2.00
2018-10-19T00:47:53.403Z,1.93
2018-10-19T00:50:21.507Z,1.97
2018-10-19T00:52:49.596Z,1.97
2018-10-19T00:55:17.819Z,2.00
2018-10-19T00:57:45.911Z,2.20
2018-10-19T01:00:14.055Z,1.97
2018-10-19T01:02:42.188Z,1.50
2018-10-19T01:05:10.329Z,2.20
2018-10-19T01:07:38.384Z,2.30
2018-10-19T01:10:06.531Z,1.70
2018-10-19T01:12:34.635Z,2.10
2018-10-19T01:15:02.933Z,2.03
2018-10-19T01:17:30.911Z,2.53
2018-10-19T01:19:59.027Z,2.17
2018-10-19T01:22:27.224Z,2.00
2018-10-19T01:24:55.350Z,1.57
2018-10-19T01:27:23.499Z,1.57
2018-10-19T01:29:51.613Z,1.67
2018-10-19T01:32:19.695Z,2.47
2018-10-19T01:34:47.815Z,1.70
2018-10-19T01:37:16.452Z,1.93
2018-10-19T01:39:44.531Z,1.67
2018-10-19T01:42:12.678Z,2.22
2018-10-19T01:44:40.790Z,1.77
2018-10-19T01:47:08.969Z,1.80
2018-10-19T01:49:37.016Z,1.80
2018-10-19T01:52:05.674Z,2.00
2018-10-19T01:54:34.056Z,2.30
2018-10-19T01:57:02.279Z,2.07
2018-10-19T01:59:30.278Z,2.03
2018-10-19T02:01:58.393Z,1.77
2018-10-19T02:04:26.703Z,1.70
2018-10-19T02:06:54.806Z,2.10
2018-10-19T02:09:22.917Z,1.50
2018-10-19T02:11:51.011Z,1.90
2018-10-19T02:14:19.139Z,1.60
2018-10-19T02:16:47.237Z,1.53
2018-10-19T02:19:15.368Z,1.70
2018-10-19T02:21:43.587Z,1.60
2018-10-19T02:24:11.724Z,1.73
2018-10-19T02:26:39.877Z,2.00
2018-10-19T02:29:08.064Z,1.90
2018-10-19T02:31:36.373Z,1.97
2018-10-19T02:34:04.707Z,2.17
2018-10-19T02:36:32.835Z,2.20
2018-10-19T02:39:01.017Z,1.70
2018-10-19T02:41:29.085Z,1.67
2018-10-19T02:43:57.635Z,1.67
2018-10-19T02:46:25.739Z,1.97
2018-10-19T02:48:53.834Z,1.50
2018-10-19T02:51:22.003Z,1.70
2018-10-19T02:53:50.135Z,1.73
2018-10-19T02:56:18.221Z,2.23
2018-10-19T02:58:46.328Z,1.90
2018-10-19T03:01:14.422Z,1.50
2018-10-19T03:03:42.555Z,1.30
2018-10-19T03:06:10.667Z,1.70
2018-10-19T03:08:38.764Z,2.13
2018-10-19T03:11:07.231Z,1.27
2018-10-19T03:13:35.260Z,1.53
2018-10-19T03:16:03.379Z,1.60
2018-10-19T03:18:31.548Z,1.93
2018-10-19T03:20:59.929Z,2.07
2018-10-19T03:23:28.027Z,1.98
2018-10-19T03:25:56.059Z,1.90
2018-10-19T03:28:24.139Z,1.50
2018-10-19T03:30:52.378Z,1.57
2018-10-19T03:33:20.385Z,1.77
2018-10-19T03:35:48.615Z,1.60
2018-10-19T03:38:16.709Z,1.47
2018-10-19T03:40:44.802Z,1.90
2018-10-19T03:43:12.943Z,1.87
2018-10-19T03:45:41.043Z,1.90
2018-10-19T03:48:09.151Z,2.00
2018-10-19T03:50:37.242Z,1.80
2018-10-19T03:53:05.677Z,1.57
2018-10-19T03:55:33.764Z,1.60
2018-10-19T03:58:02.175Z,1.83
2018-10-19T04:00:30.288Z,2.00
2018-10-19T04:02:58.385Z,1.70
2018-10-19T04:05:26.465Z,1.60
2018-10-19T04:07:54.536Z,1.97
2018-10-19T04:10:22.970Z,1.90
2018-10-19T04:12:51.131Z,1.30
2018-10-19T04:15:19.332Z,1.67
2018-10-19T04:17:47.359Z,1.93
2018-10-19T04:20:15.463Z,2.10
2018-10-19T04:22:43.591Z,1.83
2018-10-19T04:25:11.731Z,1.83
2018-10-19T04:27:39.897Z,1.87
2018-10-19T04:30:08.122Z,1.63
2018-10-19T04:32:36.226Z,2.10
2018-10-19T04:35:04.412Z,1.90
2018-10-19T04:37:32.523Z,2.23
2018-10-19T04:40:00.663Z,2.03
2018-10-19T04:42:28.856Z,1.87
2018-10-19T04:44:56.928Z,1.77
2018-10-19T04:47:24.973Z,2.40
2018-10-19T04:49:53.092Z,1.50
2018-10-19T04:52:21.183Z,1.53
2018-10-19T04:54:49.300Z,2.00
2018-10-19T04:57:17.526Z,1.60
2018-10-19T04:59:45.509Z,1.63
2018-10-19T05:02:13.599Z,2.03
2018-10-19T05:04:41.731Z,1.90
2018-10-19T05:07:09.844Z,2.43
2018-10-19T05:09:37.935Z,2.53
2018-10-19T05:12:06.043Z,2.20
2018-10-19T05:14:34.155Z,2.43
2018-10-19T05:17:02.450Z,2.07
2018-10-19T05:19:30.402Z,2.10
2018-10-19T05:21:58.486Z,2.50
2018-10-19T05:24:26.955Z,2.33
2018-10-19T05:26:55.019Z,2.87
2018-10-19T05:29:23.135Z,2.63
2018-10-19T05:31:51.250Z,2.57
2018-10-19T05:34:19.351Z,3.47
2018-10-19T05:36:47.520Z,3.67
2018-10-19T05:39:15.998Z,2.93
2018-10-19T05:41:44.136Z,3.53
2018-10-19T05:44:12.335Z,3.43
2018-10-19T05:46:40.344Z,3.52
2018-10-19T05:49:08.546Z,2.63
2018-10-19T05:51:36.618Z,3.17
2018-10-19T05:54:05.081Z,2.80
2018-10-19T05:56:33.306Z,2.33
2018-10-19T05:59:01.455Z,2.17
2018-10-19T06:01:29.544Z,2.27
2018-10-19T06:03:57.627Z,2.73
2018-10-19T06:06:25.713Z,2.30
2018-10-19T06:08:53.867Z,2.00
2018-10-19T06:11:21.952Z,2.93
2018-10-19T06:13:50.093Z,2.10
2018-10-19T06:16:18.187Z,3.70
2018-10-19T06:18:46.297Z,3.47
2018-10-19T06:21:14.514Z,5.43
2018-10-19T06:23:42.489Z,6.07
2018-10-19T06:26:12.669Z,4.03
2018-10-19T06:28:40.792Z,2.67
2018-10-19T06:31:08.968Z,2.50
2018-10-19T06:33:37.073Z,2.50
2018-10-19T06:36:05.187Z,3.30
2018-10-19T06:38:33.362Z,2.37
2018-10-19T06:41:01.543Z,3.50
2018-10-19T06:43:29.655Z,2.40
2018-10-19T06:45:57.739Z,2.73
2018-10-19T06:48:25.886Z,2.13
2018-10-19T06:50:53.989Z,2.13
2018-10-19T06:53:22.091Z,2.40
2018-10-19T06:55:50.287Z,2.57
2018-10-19T06:58:18.382Z,2.40
2018-10-19T07:00:46.493Z,2.73
2018-10-19T07:03:14.612Z,3.67
2018-10-19T07:05:42.792Z,2.90
2018-10-19T07:08:10.896Z,2.83
2018-10-19T07:10:38.955Z,2.97
2018-10-19T07:13:07.079Z,3.20
2018-10-19T07:15:35.190Z,3.07
2018-10-19T07:18:03.267Z,3.20
2018-10-19T07:20:31.373Z,2.80
2018-10-19T07:22:59.584Z,2.87
2018-10-19T07:25:27.657Z,2.93
2018-10-19T07:27:55.745Z,2.50
2018-10-19T07:30:23.919Z,2.90
2018-10-19T07:32:52.269Z,3.33
2018-10-19T07:35:20.382Z,3.73
2018-10-19T07:37:48.539Z,3.90
2018-10-19T07:40:16.651Z,4.53
2018-10-19T07:42:44.780Z,3.93
2018-10-19T07:45:13.290Z,4.53
2018-10-19T07:47:41.629Z,3.53
2018-10-19T07:50:10.090Z,3.40
2018-10-19T07:52:40.063Z,3.13
2018-10-19T07:55:09.054Z,2.87
2018-10-19T07:57:37.135Z,3.30
2018-10-19T08:00:06.223Z,3.63
2018-10-19T08:02:34.307Z,3.20
2018-10-19T08:05:02.482Z,3.47
2018-10-19T08:07:30.543Z,3.43
2018-10-19T08:09:59.019Z,3.57
2018-10-19T08:12:27.190Z,3.10
2018-10-19T08:14:55.579Z,3.50
2018-10-19T08:17:23.683Z,3.80
2018-10-19T08:19:51.819Z,3.77
2018-10-19T08:22:19.919Z,3.67
2018-10-19T08:24:48.999Z,3.93
2018-10-19T08:27:17.100Z,3.77
2018-10-19T08:29:45.193Z,3.70
2018-10-19T08:32:13.390Z,4.23
2018-10-19T08:34:41.371Z,3.97
2018-10-19T08:37:09.476Z,3.73
2018-10-19T08:39:37.675Z,3.97
2018-10-19T08:42:05.817Z,4.20
2018-10-19T08:44:33.962Z,4.20
2018-10-19T08:47:02.110Z,3.87
2018-10-19T08:49:30.128Z,3.63
2018-10-19T08:51:58.231Z,4.23
2018-10-19T08:54:26.349Z,3.83
2018-10-19T08:56:54.490Z,4.90
2018-10-19T08:59:22.531Z,4.80
2018-10-19T09:01:50.667Z,4.93
2018-10-19T09:04:18.903Z,4.73
2018-10-19T09:06:47.023Z,4.47
2018-10-19T09:09:15.226Z,4.60
2018-10-19T09:11:43.240Z,4.40
2018-10-19T09:14:22.773Z,4.30
2018-10-19T09:16:50.887Z,4.70
2018-10-19T09:19:29.631Z,4.43
2018-10-19T09:21:57.890Z,4.63
2018-10-19T09:24:25.970Z,4.47
2018-10-19T09:26:54.121Z,4.63
2018-10-19T09:29:22.184Z,4.27
2018-10-19T09:31:50.277Z,4.53
2018-10-19T09:34:18.411Z,4.73
2018-10-19T09:36:46.596Z,4.70
2018-10-19T09:39:14.820Z,4.77
2018-10-19T09:41:43.194Z,5.17
2018-10-19T09:44:11.351Z,4.77
2018-10-19T09:46:40.861Z,4.47
2018-10-19T09:49:11.309Z,4.50
2018-10-19T09:51:40.194Z,4.40
2018-10-19T09:54:08.775Z,3.77
2018-10-19T09:56:36.934Z,4.00
2018-10-19T09:59:05.476Z,4.00
2018-10-19T10:01:33.623Z,3.90
2018-10-19T10:04:01.771Z,3.83
2018-10-19T10:06:30.642Z,4.00
2018-10-19T10:08:58.803Z,4.43
2018-10-19T10:11:26.907Z,4.37
2018-10-19T10:13:54.996Z,4.50
2018-10-19T10:16:24.217Z,4.13
2018-10-19T10:18:52.352Z,4.10
2018-10-19T10:21:22.081Z,4.77
2018-10-19T10:23:53.164Z,4.23
2018-10-19T10:26:22.523Z,4.20
2018-10-19T10:28:52.123Z,4.27
2018-10-19T10:31:20.267Z,4.10
2018-10-19T10:33:48.589Z,4.70
2018-10-19T10:36:16.705Z,4.43
2018-10-19T10:38:44.907Z,4.40
2018-10-19T10:41:12.959Z,3.77
2018-10-19T10:43:41.124Z,4.03
2018-10-19T10:46:09.334Z,4.27
2018-10-19T10:48:37.381Z,4.30
2018-10-19T10:51:05.907Z,3.47
2018-10-19T10:53:34.019Z,3.63
2018-10-19T10:56:02.155Z,3.80
2018-10-19T10:58:30.328Z,3.63
2018-10-19T11:00:58.468Z,4.40
2018-10-19T11:03:26.615Z,4.17
2018-10-19T11:05:54.707Z,3.70
2018-10-19T11:08:22.793Z,3.77
2018-10-19T11:10:50.944Z,3.77
2018-10-19T11:13:19.039Z,3.50
2018-10-19T11:15:47.123Z,3.67
2018-10-19T11:18:15.236Z,3.80
2018-10-19T11:20:43.339Z,3.93
2018-10-19T11:23:11.426Z,3.27
2018-10-19T11:25:40.422Z,3.93
2018-10-19T11:28:08.602Z,2.93
2018-10-19T11:30:36.753Z,3.57
2018-10-19T11:33:04.963Z,3.50
2018-10-19T11:35:33.071Z,4.23
2018-10-19T11:38:01.353Z,4.23
2018-10-19T11:40:33.786Z,3.97
2018-10-19T11:43:02.040Z,3.40
2018-10-19T11:45:31.456Z,3.73
2018-10-19T11:47:59.655Z,3.30
2018-10-19T11:50:27.851Z,3.07
2018-10-19T11:52:55.949Z,3.73
2018-10-19T11:55:24.091Z,3.60
2018-10-19T11:57:52.579Z,3.47
2018-10-19T12:00:20.714Z,3.40
2018-10-19T12:02:48.975Z,3.70
2018-10-19T12:05:17.111Z,3.57
2018-10-19T12:07:45.275Z,3.00
2018-10-19T12:10:14.193Z,3.30
2018-10-19T12:12:42.598Z,3.80
2018-10-19T12:15:12.280Z,3.07
2018-10-19T12:17:40.999Z,3.33
2018-10-19T12:20:11.830Z,3.50
2018-10-19T12:22:40.060Z,3.20
2018-10-19T12:25:09.140Z,2.90
2018-10-19T12:27:37.294Z,3.37
2018-10-19T12:30:05.519Z,3.73
2018-10-19T12:32:33.607Z,4.07
2018-10-19T12:35:01.730Z,2.97
2018-10-19T12:37:29.940Z,3.57
2018-10-19T12:39:58.063Z,3.90
2018-10-19T12:42:26.199Z,7.43
2018-10-19T12:44:54.353Z,3.63
2018-10-19T12:47:31.819Z,3.90
2018-10-19T12:49:59.904Z,3.43
2018-10-19T12:52:28.234Z,3.23
2018-10-19T12:54:56.437Z,3.93
2018-10-19T12:57:24.548Z,3.43
2018-10-19T12:59:52.659Z,3.53
2018-10-19T13:02:20.811Z,4.07
2018-10-19T13:04:49.010Z,3.13
2018-10-19T13:07:17.393Z,3.10
2018-10-19T13:09:45.463Z,3.37
2018-10-19T13:12:13.595Z,3.77
2018-10-19T13:14:41.702Z,3.10
2018-10-19T13:17:09.883Z,3.17
2018-10-19T13:19:38.213Z,3.43
2018-10-19T13:22:06.993Z,3.30
2018-10-19T13:24:35.091Z,3.90
2018-10-19T13:27:03.173Z,3.50
2018-10-19T13:29:31.313Z,3.25
2018-10-19T13:31:59.531Z,3.22
2018-10-19T13:34:27.789Z,2.92
2018-10-19T13:36:55.847Z,2.98
2018-10-19T13:39:23.919Z,3.15
2018-10-19T13:41:52.025Z,3.33
2018-10-19T13:44:20.131Z,2.98
2018-10-19T13:46:48.228Z,3.65
2018-10-19T13:49:16.352Z,3.60
2018-10-19T13:51:44.466Z,3.15
2018-10-19T13:54:12.555Z,2.77
2018-10-19T13:56:40.635Z,3.42
2018-10-19T13:59:09.664Z,3.35
2018-10-19T14:01:37.995Z,2.85
2018-10-19T14:04:06.413Z,2.80
2018-10-19T14:06:34.539Z,3.42
2018-10-19T14:09:02.818Z,3.00
2018-10-19T14:11:35.302Z,3.70
2018-10-19T14:14:03.505Z,4.55
2018-10-19T14:16:31.623Z,3.80
2018-10-19T14:18:59.776Z,4.10
2018-10-19T14:21:27.840Z,3.50
2018-10-19T14:23:55.988Z,3.42
2018-10-19T14:26:24.086Z,3.37
2018-10-19T14:28:52.226Z,3.67
2018-10-19T14:31:23.656Z,3.33
2018-10-19T14:33:51.745Z,3.17
2018-10-19T14:36:20.381Z,3.80
2018-10-19T14:38:48.535Z,3.25
2018-10-19T14:41:16.689Z,3.30
2018-10-19T14:43:44.742Z,3.65
2018-10-19T14:46:12.830Z,3.17
2018-10-19T14:48:40.963Z,3.42
2018-10-19T14:51:09.117Z,2.95
2018-10-19T14:53:37.171Z,3.90
2018-10-19T14:56:05.276Z,3.72
2018-10-19T14:58:33.425Z,3.30
2018-10-19T15:01:01.748Z,3.45
2018-10-19T15:03:29.827Z,3.35
2018-10-19T15:05:57.910Z,3.40
2018-10-19T15:08:26.039Z,3.08
2018-10-19T15:10:54.299Z,2.90
2018-10-19T15:13:22.255Z,2.75
2018-10-19T15:15:50.356Z,2.80
2018-10-19T15:18:18.531Z,2.90
2018-10-19T15:20:46.626Z,2.95
2018-10-19T15:23:14.731Z,3.72
2018-10-19T15:25:42.807Z,3.20
2018-10-19T15:28:10.945Z,2.95
2018-10-19T15:30:39.031Z,3.33
2018-10-19T15:33:07.496Z,3.37
2018-10-19T15:35:35.708Z,3.27
2018-10-19T15:38:03.826Z,3.08
2018-10-19T15:40:32.057Z,3.15
2018-10-19T15:43:02.762Z,3.67
2018-10-19T15:45:31.487Z,3.52
2018-10-19T15:47:59.645Z,3.72
2018-10-19T15:50:27.727Z,3.33
2018-10-19T15:52:55.829Z,3.75
2018-10-19T15:55:25.019Z,3.35
2018-10-19T15:57:53.284Z,3.53
2018-10-19T16:00:21.551Z,3.33
2018-10-19T16:02:49.535Z,2.93
2018-10-19T16:05:17.708Z,3.40
2018-10-19T16:07:45.800Z,2.63
2018-10-19T16:10:13.958Z,3.50
2018-10-19T16:12:42.007Z,3.40
2018-10-19T16:15:10.725Z,3.13
2018-10-19T16:17:39.472Z,3.73
2018-10-19T16:20:08.627Z,3.00
2018-10-19T16:22:36.950Z,3.30
2018-10-19T16:25:06.249Z,3.17
2018-10-19T16:27:34.417Z,3.53
2018-10-19T16:30:02.684Z,4.13
2018-10-19T16:32:30.741Z,4.03
2018-10-19T16:34:59.184Z,3.00
2018-10-19T16:37:27.277Z,3.00
2018-10-19T16:39:55.402Z,3.20
2018-10-19T16:42:23.544Z,3.30
2018-10-19T16:44:51.628Z,3.50
2018-10-19T16:47:19.752Z,4.07
2018-10-19T16:49:47.867Z,3.10
2018-10-19T16:52:16.153Z,4.10
2018-10-19T16:54:44.666Z,3.63
2018-10-19T16:57:12.798Z,4.10
2018-10-19T16:59:40.870Z,8.93
2018-10-19T17:02:08.974Z,8.17
2018-10-19T17:04:37.104Z,6.77
2018-10-19T17:07:05.501Z,5.57
2018-10-19T17:09:33.621Z,4.90
2018-10-19T17:12:01.846Z,4.43
2018-10-19T17:14:29.947Z,4.17
2018-10-19T17:16:58.043Z,4.70
2018-10-19T17:19:26.589Z,4.17
2018-10-19T17:21:54.653Z,4.17
2018-10-19T17:24:22.852Z,4.40
2018-10-19T17:26:51.035Z,5.33
2018-10-19T17:29:19.176Z,5.07
2018-10-19T17:31:47.906Z,4.23
2018-10-19T17:34:15.981Z,4.67
2018-10-19T17:36:44.078Z,6.12
2018-10-19T17:39:12.578Z,4.97
2018-10-19T17:41:40.649Z,5.17
2018-10-19T17:44:09.002Z,5.20
2018-10-19T17:46:37.080Z,5.57
2018-10-19T17:49:05.291Z,5.30
2018-10-19T17:51:33.396Z,5.00
2018-10-19T17:54:01.634Z,5.07
2018-10-19T17:56:29.775Z,5.43
2018-10-19T17:58:57.960Z,5.17
2018-10-19T18:01:26.396Z,4.83
2018-10-19T18:03:54.494Z,5.63
2018-10-19T18:06:22.621Z,5.10
2018-10-19T18:08:50.724Z,4.77
2018-10-19T18:11:18.846Z,4.93
2018-10-19T18:13:46.959Z,4.80
2018-10-19T18:16:15.189Z,5.00
2018-10-19T18:18:43.223Z,5.13
2018-10-19T18:21:11.449Z,5.80
2018-10-19T18:23:39.631Z,5.83
2018-10-19T18:26:07.710Z,11.73
2018-10-19T18:28:35.820Z,12.50
2018-10-19T18:31:03.954Z,9.90
2018-10-19T18:33:32.027Z,6.93
2018-10-19T18:36:00.280Z,8.10
2018-10-19T18:38:28.492Z,12.53
2018-10-19T18:40:56.976Z,9.43
2018-10-19T18:43:25.590Z,9.37
2018-10-19T18:45:54.601Z,9.23
2018-10-19T18:48:22.819Z,8.17
2018-10-19T18:50:51.007Z,11.70
2018-10-19T18:53:19.445Z,10.53
2018-10-19T18:55:47.985Z,10.73
2018-10-19T18:58:17.087Z,8.30
2018-10-19T19:00:45.323Z,8.63
2018-10-19T19:03:13.498Z,7.20
2018-10-19T19:05:41.671Z,7.67
2018-10-19T19:08:10.122Z,7.87
2018-10-19T19:10:38.611Z,6.97
2018-10-19T19:13:12.056Z,6.33
2018-10-19T19:15:40.899Z,6.77
2018-10-19T19:18:09.207Z,6.77
2018-10-19T19:20:37.380Z,5.90
2018-10-19T19:23:06.051Z,6.80
2018-10-19T19:25:39.678Z,29.80
2018-10-19T19:28:07.817Z,20.33
2018-10-19T19:30:35.999Z,10.30
2018-10-19T19:33:09.451Z,7.33
2018-10-19T19:35:37.572Z,7.37
2018-10-19T19:38:05.775Z,6.63
2018-10-19T19:40:39.327Z,7.10
2018-10-19T19:43:07.432Z,7.13
2018-10-19T19:45:35.539Z,6.97
2018-10-19T19:48:08.987Z,6.63
2018-10-19T19:50:37.080Z,7.00
2018-10-19T19:53:05.635Z,6.43
2018-10-19T19:55:33.735Z,7.00
2018-10-19T19:58:02.965Z,8.53
2018-10-19T20:00:31.261Z,6.50
2018-10-19T20:02:59.399Z,5.40
2018-10-19T20:05:28.186Z,5.73
2018-10-19T20:07:56.291Z,5.47
2018-10-19T20:10:24.552Z,5.83
2018-10-19T20:12:52.839Z,6.17
2018-10-19T20:15:20.986Z,5.43
2018-10-19T20:17:49.826Z,5.77
2018-10-19T20:20:18.125Z,6.27
2018-10-19T20:22:46.137Z,6.37
2018-10-19T20:25:14.291Z,7.10
2018-10-19T20:27:42.437Z,6.17
2018-10-19T20:30:12.249Z,6.33
2018-10-19T20:32:40.627Z,6.10
2018-10-19T20:35:09.099Z,5.47
2018-10-19T20:37:37.201Z,5.83
2018-10-19T20:40:05.505Z,6.10
2018-10-19T20:42:33.635Z,8.40
2018-10-19T20:45:01.722Z,6.20
2018-10-19T20:47:29.845Z,9.07
2018-10-19T20:49:58.364Z,8.17
2018-10-19T20:52:26.521Z,6.17
2018-10-19T20:54:54.630Z,6.40
2018-10-19T20:57:22.695Z,5.10
2018-10-19T20:59:50.801Z,5.30
2018-10-19T21:02:19.147Z,6.03
2018-10-19T21:04:47.218Z,5.60
2018-10-19T21:07:15.337Z,6.37
2018-10-19T21:09:43.430Z,5.13
2018-10-19T21:12:11.544Z,9.13
2018-10-19T21:14:39.659Z,6.80
2018-10-19T21:17:07.838Z,8.03
2018-10-19T21:19:35.972Z,6.93
2018-10-19T21:22:04.017Z,7.27
2018-10-19T21:24:32.116Z,6.23
2018-10-19T21:27:00.251Z,6.10
2018-10-19T21:29:29.367Z,5.93
2018-10-19T21:31:57.550Z,5.77
2018-10-19T21:34:25.631Z,5.03
2018-10-19T21:36:53.871Z,5.80
2018-10-19T21:39:21.934Z,5.37
2018-10-19T21:41:50.075Z,5.83
2018-10-19T21:44:18.179Z,6.40
2018-10-19T21:46:46.465Z,5.67
2018-10-19T21:49:14.546Z,5.30
2018-10-19T21:51:42.735Z,5.23
2018-10-19T21:54:10.760Z,5.23
2018-10-19T21:56:39.891Z,4.97
2018-10-19T21:59:08.095Z,4.47
2018-10-19T22:01:36.136Z,4.80
2018-10-19T22:04:04.244Z,5.40
2018-10-19T22:06:32.438Z,5.00
2018-10-19T22:09:00.584Z,4.60
2018-10-19T22:11:28.723Z,4.97
2018-10-19T22:13:56.889Z,5.23
2018-10-19T22:16:25.072Z,4.37
2018-10-19T22:18:53.235Z,4.50
2018-10-19T22:21:21.488Z,5.40
2018-10-19T22:23:49.699Z,4.70
2018-10-19T22:26:18.233Z,4.50
2018-10-19T22:28:46.296Z,4.50
2018-10-19T22:31:14.546Z,5.40
2018-10-19T22:33:42.657Z,4.70
2018-10-19T22:36:10.745Z,4.47
2018-10-19T22:38:38.879Z,4.57
2018-10-19T22:41:07.089Z,4.27
2018-10-19T22:43:35.115Z,3.90
2018-10-19T22:46:03.270Z,4.03
2018-10-19T22:48:31.355Z,3.77
2018-10-19T22:50:59.516Z,4.27
2018-10-19T22:53:27.608Z,4.77
2018-10-19T22:55:56.067Z,4.03
2018-10-19T22:58:24.152Z,4.23
2018-10-19T23:00:52.230Z,4.10
2018-10-19T23:03:20.288Z,4.10
2018-10-19T23:05:48.402Z,4.77
2018-10-19T23:08:16.469Z,4.57
2018-10-19T23:10:44.574Z,4.17
2018-10-19T23:13:12.710Z,4.23
2018-10-19T23:15:40.821Z,4.33
2018-10-19T23:18:08.922Z,4.70
2018-10-19T23:20:37.027Z,4.60
2018-10-19T23:23:05.153Z,4.30
2018-10-19T23:25:33.211Z,4.50
2018-10-19T23:28:01.348Z,4.17
2018-10-19T23:30:29.445Z,4.17
2018-10-19T23:32:57.516Z,4.20
2018-10-19T23:35:25.644Z,5.27
2018-10-19T23:37:53.769Z,4.17
2018-10-19T23:40:21.845Z,4.53
2018-10-19T23:42:49.983Z,4.60
2018-10-19T23:45:18.098Z,5.27
2018-10-19T23:47:46.171Z,5.40
2018-10-19T23:50:14.310Z,4.83
2018-10-19T23:52:42.427Z,6.07
2018-10-19T23:55:10.559Z,5.17
2018-10-19T23:57:38.606Z,5.97
